Time;durP1;ratioP1;P1;durP2;ratioP2;P2;SDS_P1;SDS_P2;PMS_P1;PMS_P2;Temp;Humidity;BMP_temperature;BMP_pressure;BME280_temperature;BME280_humidity;BME280_pressure;Samples;Min_cycle;Max_cycle;Signal;HPM_P1;HPM_P2
2022/04/17 00:02:03;;;;;;;67.43;39.70;;;;;;;3.84;100.00;102645.09;7387631;19;20945;-45
2022/04/17 00:04:34;;;;;;;59.60;36.77;;;;;;;3.74;100.00;102642.38;7394407;19;20776;-43
2022/04/17 00:07:03;;;;;;;65.90;38.00;;;;;;;3.77;100.00;102632.47;7379574;19;20872;-46
2022/04/17 00:09:33;;;;;;;69.87;39.03;;;;;;;3.85;100.00;102631.56;7397124;19;20507;-51
2022/04/17 00:12:06;;;;;;;65.77;37.00;;;;;;;3.86;100.00;102623.19;7381543;19;20425;-45
2022/04/17 00:14:43;;;;;;;58.80;34.73;;;;;;;3.89;100.00;102633.69;7394133;19;20404;-45
2022/04/17 00:17:13;;;;;;;56.57;34.53;;;;;;;3.88;100.00;102630.97;7361613;19;20394;-45
2022/04/17 00:19:42;;;;;;;57.37;35.77;;;;;;;3.78;100.00;102627.50;7391857;19;20426;-46
2022/04/17 00:22:13;;;;;;;58.67;35.67;;;;;;;3.73;100.00;102620.13;7356252;19;20433;-50
2022/04/17 00:24:43;;;;;;;55.77;34.67;;;;;;;3.71;100.00;102617.44;7393557;19;20384;-47
2022/04/17 00:27:15;;;;;;;57.47;36.13;;;;;;;3.64;100.00;102610.81;7353841;19;20414;-44
2022/04/17 00:29:45;;;;;;;61.30;37.17;;;;;;;3.68;100.00;102611.13;7391650;19;20415;-45
2022/04/17 00:32:14;;;;;;;60.50;38.00;;;;;;;3.67;100.00;102611.84;7357285;19;20727;-47
2022/04/17 00:34:44;;;;;;;62.87;39.17;;;;;;;3.67;100.00;102607.66;7393416;19;20392;-47
2022/04/17 00:37:14;;;;;;;72.23;43.40;;;;;;;3.70;100.00;102600.28;7367982;19;20417;-52
2022/04/17 00:39:43;;;;;;;75.87;44.43;;;;;;;3.71;100.00;102591.00;7391645;19;21034;-46
2022/04/17 00:42:16;;;;;;;74.23;44.00;;;;;;;3.66;100.00;102590.53;7365829;19;20395;-45
2022/04/17 00:44:45;;;;;;;82.50;44.50;;;;;;;3.54;100.00;102580.00;7392559;19;20391;-44
2022/04/17 00:47:16;;;;;;;73.10;42.43;;;;;;;3.47;100.00;102582.69;7342019;19;20825;-45
2022/04/17 00:49:46;;;;;;;70.23;40.20;;;;;;;3.37;100.00;102578.31;7391336;19;20926;-45
2022/04/17 00:52:16;;;;;;;70.03;39.07;;;;;;;3.34;100.00;102576.38;7382879;19;20435;-47
2022/04/17 00:54:47;;;;;;;63.17;37.23;;;;;;;3.34;100.00;102573.81;7393263;19;20374;-45
2022/04/17 00:57:19;;;;;;;66.87;39.50;;;;;;;3.32;100.00;102570.22;7383960;19;20419;-47
2022/04/17 00:59:50;;;;;;;72.30;42.13;;;;;;;3.29;100.00;102563.91;7391157;19;20405;-45
2022/04/17 01:02:19;;;;;;;81.67;43.20;;;;;;;3.36;100.00;102557.03;7383214;19;20414;-44
2022/04/17 01:04:49;;;;;;;78.10;43.70;;;;;;;3.29;100.00;102563.91;7392757;19;20418;-46
2022/04/17 01:07:19;;;;;;;73.63;40.87;;;;;;;3.24;100.00;102555.78;7376593;19;20433;-46
2022/04/17 01:09:48;;;;;;;71.70;41.77;;;;;;;3.19;100.00;102537.44;7395318;19;20420;-46
2022/04/17 01:12:21;;;;;;;76.00;40.93;;;;;;;3.25;100.00;102529.53;7358165;19;20944;-47
2022/04/17 01:14:51;;;;;;;64.00;35.83;;;;;;;3.28;100.00;102529.81;7391249;19;20380;-45
2022/04/17 01:17:21;;;;;;;62.70;36.23;;;;;;;3.26;100.00;102528.78;7370119;19;20390;-44
2022/04/17 01:19:50;;;;;;;58.87;34.90;;;;;;;3.20;100.00;102530.72;7389631;19;20421;-44
2022/04/17 01:22:25;;;;;;;83.80;44.17;;;;;;;3.24;100.00;102500.53;7380789;19;20721;-45
2022/04/17 01:27:37;;;;;;;73.03;39.17;;;;;;;3.07;100.00;102408.69;7359478;19;20941;-44
2022/04/17 01:30:07;;;;;;;66.73;37.40;;;;;;;3.08;100.00;102393.53;7391041;19;20415;-49
2022/04/17 01:32:37;;;;;;;55.53;32.13;;;;;;;3.01;100.00;102414.09;7386404;19;20944;-47
2022/04/17 01:35:08;;;;;;;48.17;27.83;;;;;;;2.91;100.00;102421.56;7392461;19;20388;-49
2022/04/17 01:37:40;;;;;;;47.17;28.50;;;;;;;2.86;100.00;102423.66;7351522;19;20411;-44
2022/04/17 01:40:11;;;;;;;55.07;32.67;;;;;;;2.89;100.00;102402.69;7391652;19;20390;-44
2022/04/17 01:42:40;;;;;;;48.47;26.77;;;;;;;2.91;100.00;102398.63;7355016;19;20398;-47
2022/04/17 01:45:11;;;;;;;41.90;25.70;;;;;;;2.76;100.00;102404.00;7392652;19;20386;-46
2022/04/17 01:47:41;;;;;;;45.00;26.50;;;;;;;2.76;100.00;102393.81;7383456;19;20746;-47
2022/04/17 01:50:11;;;;;;;42.40;23.30;;;;;;;2.82;100.00;102402.06;7390669;19;20394;-43
2022/04/17 01:52:43;;;;;;;47.83;25.77;;;;;;;2.81;100.00;102389.16;7354733;19;20375;-44
2022/04/17 01:55:13;;;;;;;50.40;26.80;;;;;;;2.83;100.00;102382.59;7391729;19;20384;-44
2022/04/17 01:57:42;;;;;;;39.13;22.87;;;;;;;2.62;100.00;102391.53;7386644;19;20427;-45
2022/04/17 02:00:13;;;;;;;38.10;22.93;;;;;;;2.65;100.00;102392.75;7390847;19;20391;-45
2022/04/17 02:02:43;;;;;;;36.53;21.60;;;;;;;2.72;100.00;102389.13;7356604;19;20799;-44
2022/04/17 02:05:12;;;;;;;36.97;22.63;;;;;;;2.68;100.00;102382.84;7394444;19;20388;-44
2022/04/17 02:07:44;;;;;;;38.23;24.63;;;;;;;2.67;100.00;102395.44;7352548;19;21023;-46
2022/04/17 02:10:19;;;;;;;40.23;21.70;;;;;;;2.74;100.00;102390.22;7389268;19;20406;-47
2022/04/17 02:12:53;;;;;;;33.23;20.40;;;;;;;2.73;100.00;102390.06;7390521;19;20437;-44
2022/04/17 02:15:27;;;;;;;31.80;20.03;;;;;;;2.75;100.00;102389.47;7357876;19;20382;-45
2022/04/17 02:17:56;;;;;;;34.53;21.23;;;;;;;2.72;100.00;102386.59;7390623;19;20366;-50
2022/04/17 02:20:27;;;;;;;40.47;22.77;;;;;;;2.76;100.00;102387.81;7349551;19;20412;-46
2022/04/17 02:22:59;;;;;;;32.30;19.83;;;;;;;2.74;100.00;102379.09;7389972;19;20395;-47
2022/04/17 02:25:29;;;;;;;34.97;20.03;;;;;;;2.73;100.00;102383.31;7357831;19;20367;-47
2022/04/17 02:27:58;;;;;;;35.47;20.30;;;;;;;2.69;100.00;102389.75;7395377;19;20373;-44
2022/04/17 02:30:28;;;;;;;32.80;19.80;;;;;;;2.65;100.00;102396.94;7370813;19;20395;-47
2022/04/17 02:32:57;;;;;;;30.63;19.60;;;;;;;2.55;100.00;102387.47;7396283;19;20399;-46
2022/04/17 02:35:26;;;;;;;34.50;21.20;;;;;;;2.58;100.00;102371.56;7358716;19;20388;-45
2022/04/17 02:37:59;;;;;;;35.73;20.60;;;;;;;2.64;100.00;102355.25;7397538;19;20395;-45
2022/04/17 02:40:28;;;;;;;41.10;20.10;;;;;;;2.62;100.00;102353.31;7390624;19;20398;-44
2022/04/17 02:42:58;;;;;;;32.10;18.90;;;;;;;2.50;100.00;102365.69;7398299;19;20388;-45
2022/04/17 02:45:28;;;;;;;33.53;19.13;;;;;;;2.46;100.00;102363.63;7393444;19;20910;-47
2022/04/17 02:47:55;;;;;;;28.33;17.90;;;;;;;2.45;100.00;102356.72;7396751;19;20392;-45
2022/04/17 02:50:25;;;;;;;35.00;19.83;;;;;;;2.47;100.00;102337.38;7389764;19;20419;-47
2022/04/17 02:52:59;;;;;;;29.97;19.90;;;;;;;2.51;100.00;102347.16;7397936;19;20392;-44
2022/04/17 02:55:28;;;;;;;31.67;18.47;;;;;;;2.48;100.00;102336.63;7389329;19;20434;-44
2022/04/17 02:57:58;;;;;;;32.43;18.70;;;;;;;2.52;100.00;102334.53;7396840;19;20379;-46
2022/04/17 03:00:28;;;;;;;33.87;20.50;;;;;;;2.54;100.00;102340.72;7380767;19;20411;-48
2022/04/17 03:05:39;;;;;;;34.20;20.03;;;;;;;2.53;100.00;102343.09;7388520;19;20398;-46
2022/04/17 03:08:13;;;;;;;31.93;19.90;;;;;;;2.47;100.00;102343.38;7395893;19;20382;-48
2022/04/17 03:10:46;;;;;;;34.00;20.20;;;;;;;2.47;100.00;102330.66;7390721;19;20405;-43
2022/04/17 03:13:15;;;;;;;34.97;20.00;;;;;;;2.40;100.00;102339.31;7399500;19;20395;-45
2022/04/17 03:15:45;;;;;;;28.87;18.23;;;;;;;2.41;100.00;102335.13;7392444;19;20399;-46
2022/04/17 03:18:15;;;;;;;36.80;20.23;;;;;;;2.36;100.00;102332.09;7396886;19;20392;-48
2022/04/17 03:20:46;;;;;;;35.37;21.40;;;;;;;2.36;100.00;102321.91;7392367;19;20795;-45
2022/04/17 03:23:19;;;;;;;34.80;20.40;;;;;;;2.29;100.00;102325.50;7396718;19;20780;-44
2022/04/17 03:25:48;;;;;;;34.77;21.20;;;;;;;2.31;100.00;102325.66;7352445;19;20402;-44
2022/04/17 03:28:18;;;;;;;38.87;21.97;;;;;;;2.24;100.00;102323.22;7395395;19;20371;-47
2022/04/17 03:30:48;;;;;;;35.10;20.13;;;;;;;2.23;100.00;102324.88;7390747;19;20395;-44
2022/04/17 03:33:17;;;;;;;32.87;20.47;;;;;;;2.20;100.00;102309.28;7396948;19;20384;-46
2022/04/17 03:35:47;;;;;;;28.80;18.20;;;;;;;2.23;100.00;102299.41;7391326;19;20413;-46
2022/04/17 03:38:19;;;;;;;32.77;20.40;;;;;;;2.27;100.00;102300.63;7394069;19;20379;-44
2022/04/17 03:40:48;;;;;;;32.97;20.10;;;;;;;2.27;100.00;102296.41;7359410;19;20411;-46
2022/04/17 03:43:18;;;;;;;33.97;18.97;;;;;;;2.29;100.00;102300.03;7395414;19;20372;-47
2022/04/17 03:45:49;;;;;;;31.60;19.07;;;;;;;2.27;100.00;102304.06;7388479;19;21393;-47
2022/04/17 03:48:19;;;;;;;31.77;18.73;;;;;;;2.17;100.00;102309.00;7395756;19;20888;-50
2022/04/17 03:50:49;;;;;;;30.30;17.63;;;;;;;2.19;100.00;102306.59;7355113;19;20426;-46
2022/04/17 03:53:21;;;;;;;34.20;18.90;;;;;;;2.13;100.00;102301.78;7394731;19;20371;-50
2022/04/17 03:55:51;;;;;;;26.77;16.80;;;;;;;2.15;100.00;102302.81;7359760;19;20402;-49
2022/04/17 03:58:20;;;;;;;29.63;18.53;;;;;;;2.13;100.00;102299.22;7393736;19;20378;-48
2022/04/17 04:00:50;;;;;;;40.67;22.80;;;;;;;2.13;100.00;102301.78;7388266;19;20386;-44
2022/04/17 04:03:20;;;;;;;29.20;18.63;;;;;;;2.09;100.00;102299.66;7395345;19;20380;-43
2022/04/17 04:05:50;;;;;;;35.47;21.67;;;;;;;2.04;100.00;102301.75;7386969;19;20733;-44
2022/04/17 04:08:22;;;;;;;37.00;20.83;;;;;;;2.05;100.00;102297.56;7394821;19;20381;-46
2022/04/17 04:10:51;;;;;;;43.03;21.73;;;;;;;2.07;100.00;102290.97;7352390;19;20386;-43
2022/04/17 04:13:22;;;;;;;38.93;21.60;;;;;;;2.11;100.00;102299.06;7398880;19;20375;-45
2022/04/17 04:15:51;;;;;;;36.33;21.43;;;;;;;2.04;100.00;102290.69;7362248;19;20402;-44
2022/04/17 04:18:21;;;;;;;43.20;23.53;;;;;;;1.98;100.00;102291.84;7393348;19;20912;-45
2022/04/17 04:20:50;;;;;;;43.53;24.57;;;;;;;1.92;100.00;102286.13;7387455;19;20416;-48
2022/04/17 04:23:23;;;;;;;40.63;22.43;;;;;;;1.90;100.00;102297.81;7394544;19;20359;-44
2022/04/17 04:25:52;;;;;;;38.07;23.23;;;;;;;2.04;100.00;102277.94;7387952;19;20945;-47
2022/04/17 04:28:36;;;;;;;44.27;25.13;;;;;;;2.06;100.00;102266.25;7394427;19;20377;-45
2022/04/17 04:31:07;;;;;;;41.30;24.70;;;;;;;2.07;100.00;102266.41;7367156;19;20403;-44
2022/04/17 04:33:37;;;;;;;43.10;23.30;;;;;;;2.19;100.00;102259.09;7391772;19;20403;-45
2022/04/17 04:36:09;;;;;;;38.67;21.43;;;;;;;2.21;100.00;102249.94;7351432;19;20407;-47
2022/04/17 04:38:42;;;;;;;35.77;20.60;;;;;;;2.15;100.00;102252.81;7393484;19;20395;-47
2022/04/17 04:41:12;;;;;;;37.10;21.50;;;;;;;2.22;100.00;102245.78;7388091;19;20406;-47
2022/04/17 04:43:41;;;;;;;32.70;20.17;;;;;;;2.29;100.00;102236.34;7398749;19;20410;-45
2022/04/17 04:46:09;;;;;;;34.10;19.40;;;;;;;2.26;100.00;102246.22;7367660;19;20390;-45
2022/04/17 04:51:23;;;;;;;38.60;19.53;;;;;;;2.27;100.00;102259.88;7376101;19;20454;-45
2022/04/17 04:53:55;;;;;;;35.33;20.97;;;;;;;2.19;100.00;102265.84;7393728;19;20387;-44
2022/04/17 04:56:26;;;;;;;34.97;20.67;;;;;;;2.24;100.00;102260.47;7377242;19;20419;-47
2022/04/17 04:58:55;;;;;;;37.20;21.87;;;;;;;2.37;100.00;102261.69;7391373;19;20432;-45
2022/04/17 05:01:25;;;;;;;34.80;20.10;;;;;;;2.29;100.00;102269.47;7387438;19;20415;-43
2022/04/17 05:03:54;;;;;;;34.17;19.33;;;;;;;2.22;100.00;102272.16;7393393;19;20394;-47
2022/04/17 05:06:24;;;;;;;34.60;20.10;;;;;;;2.51;100.00;102251.19;7365538;19;20469;-44
2022/04/17 05:08:56;;;;;;;33.93;19.20;;;;;;;2.76;100.00;102245.94;7393761;19;20419;-44
2022/04/17 05:11:25;;;;;;;39.87;19.70;;;;;;;2.95;100.00;102245.19;7364277;19;20410;-44
2022/04/17 05:13:55;;;;;;;31.50;18.37;;;;;;;2.80;100.00;102272.63;7392495;19;20384;-45
2022/04/17 05:16:24;;;;;;;31.70;19.80;;;;;;;2.52;100.00;102301.41;7387580;19;20952;-45
2022/04/17 05:19:19;;;;;;;35.33;18.50;;;;;;;2.60;100.00;102296.19;7391976;19;20419;-49
2022/04/17 05:21:46;;;;;;;32.20;17.30;;;;;;;2.91;100.00;102279.69;7384763;19;20402;-45
2022/04/17 05:24:19;;;;;;;35.87;20.63;;;;;;;2.93;100.00;102293.47;7393429;19;20371;-45
2022/04/17 05:26:48;;;;;;;35.57;20.40;;;;;;;2.91;100.00;102304.28;7353115;19;21348;-47
2022/04/17 05:29:18;;;;;;;37.77;18.93;;;;;;;2.98;100.00;102306.69;7391338;19;20399;-45
2022/04/17 05:31:48;;;;;;;31.43;19.13;;;;;;;2.98;100.00;102311.81;7340113;19;20394;-45
2022/04/17 05:34:18;;;;;;;32.67;18.47;;;;;;;2.99;100.00;102323.78;7390575;19;20351;-46
2022/04/17 05:36:47;;;;;;;29.97;17.67;;;;;;;3.03;100.00;102330.09;7381985;19;20402;-47
2022/04/17 05:39:19;;;;;;;30.17;18.30;;;;;;;3.13;100.00;102337.00;7391573;19;20423;-48
2022/04/17 05:41:49;;;;;;;25.70;16.80;;;;;;;3.27;100.00;102334.13;7355737;19;20389;-47
2022/04/17 05:44:19;;;;;;;27.93;17.27;;;;;;;3.44;100.00;102337.41;7392266;19;20404;-47
2022/04/17 05:46:49;;;;;;;29.03;17.40;;;;;;;3.50;100.00;102355.84;7385402;19;20414;-46
2022/04/17 05:49:19;;;;;;;30.67;17.80;;;;;;;3.41;100.00;102372.81;7390148;19;20442;-47
2022/04/17 05:51:49;;;;;;;36.20;18.67;;;;;;;3.50;100.00;102376.28;7383260;19;20411;-45
2022/04/17 05:54:21;;;;;;;34.30;19.30;;;;;;;3.57;100.00;102381.22;7392739;19;21024;-45
2022/04/17 05:56:51;;;;;;;33.80;18.40;;;;;;;3.60;100.00;102391.69;7386863;19;20421;-44
2022/04/17 05:59:20;;;;;;;38.80;18.93;;;;;;;3.71;100.00;102392.75;7390597;19;20415;-46
2022/04/17 06:01:50;;;;;;;32.07;18.13;;;;;;;3.76;100.00;102413.63;7391591;19;20414;-48
2022/04/17 06:04:20;;;;;;;31.63;17.50;;;;;;;3.82;100.00;102421.88;7402474;19;20370;-46
2022/04/17 06:06:49;;;;;;;34.80;17.13;;;;;;;3.82;100.00;102438.84;7391697;19;20945;-45
2022/04/17 06:09:21;;;;;;;35.40;17.40;;;;;;;4.04;100.00;102437.59;7396285;19;20412;-45
2022/04/17 06:11:51;;;;;;;29.77;16.60;;;;;;;4.30;100.00;102444.25;7390912;19;20417;-45
2022/04/17 06:14:20;;;;;;;28.90;16.43;;;;;;;4.63;100.00;102449.84;7399500;19;20391;-43
2022/04/17 06:16:50;;;;;;;25.27;14.50;;;;;;;4.71;100.00;102471.91;7393944;19;20394;-46
2022/04/17 06:19:20;;;;;;;34.30;15.33;;;;;;;4.69;100.00;102491.34;7401548;19;20423;-43
2022/04/17 06:21:49;;;;;;;24.00;13.67;;;;;;;4.81;100.00;102486.44;7366431;19;20753;-51
2022/04/17 06:24:21;;;;;;;22.90;13.23;;;;;;;4.79;100.00;102517.75;7398516;19;20397;-48
2022/04/17 06:26:51;;;;;;;20.43;12.90;;;;;;;4.96;100.00;102516.75;7390617;19;20451;-46
2022/04/17 06:29:20;;;;;;;21.90;13.37;;;;;;;5.26;100.00;102518.72;7396205;19;20402;-47
2022/04/17 06:31:50;;;;;;;23.43;13.70;;;;;;;5.37;100.00;102539.25;7388345;19;20410;-47
2022/04/17 06:34:19;;;;;;;16.73;10.87;;;;;;;5.33;100.00;102557.66;7398597;19;20387;-48
2022/04/17 06:36:49;;;;;;;17.37;11.37;;;;;;;5.20;100.00;102571.88;7361659;19;20403;-46
2022/04/17 06:39:21;;;;;;;19.67;9.87;;;;;;;5.16;100.00;102591.91;7396608;19;20421;-51
2022/04/17 06:41:50;;;;;;;14.07;9.20;;;;;;;5.36;100.00;102584.44;7362159;19;20406;-48
2022/04/17 06:44:20;;;;;;;13.63;8.13;;;;;;;5.49;100.00;102598.38;7400934;19;20415;-46
2022/04/17 06:46:50;;;;;;;16.83;8.67;;;;;;;5.43;100.00;102621.75;7384389;19;20394;-49
2022/04/17 06:49:19;;;;;;;11.87;6.70;;;;;;;5.49;100.00;102629.09;7396163;19;20514;-48
2022/04/17 06:51:49;;;;;;;13.13;7.63;;;;;;;5.70;100.00;102629.28;7356456;19;20423;-47
2022/04/17 06:54:18;;;;;;;11.93;7.23;;;;;;;5.89;100.00;102625.06;7397130;19;20393;-47
2022/04/17 06:56:50;;;;;;;13.40;5.83;;;;;;;6.08;100.00;102640.50;7356751;19;20501;-50
2022/04/17 06:59:20;;;;;;;9.97;5.60;;;;;;;6.17;100.00;102644.63;7395482;19;20428;-48
2022/04/17 07:01:49;;;;;;;11.40;5.87;;;;;;;6.32;100.00;102655.38;7355588;19;20920;-44
2022/04/17 07:04:19;;;;;;;8.40;5.47;;;;;;;6.56;100.00;102661.78;7396688;19;20915;-47
2022/04/17 07:06:49;;;;;;;10.67;5.50;;;;;;;6.52;100.00;102671.63;7391546;19;20467;-44
2022/04/17 07:09:18;;;;;;;11.07;5.37;;;;;;;6.40;100.00;102684.28;7395557;19;20485;-46
2022/04/17 07:11:51;;;;;;;8.27;4.50;;;;;;;6.26;100.00;102689.03;7389240;19;20428;-45
2022/04/17 07:14:21;;;;;;;9.57;4.90;;;;;;;6.49;100.00;102679.94;7397082;19;20907;-46
2022/04/17 07:16:51;;;;;;;5.60;3.60;;;;;;;6.52;100.00;102690.50;7390870;19;20415;-49
2022/04/17 07:19:20;;;;;;;7.53;3.40;;;;;;;6.48;100.00;102707.25;7395495;19;20500;-44
2022/04/17 07:21:50;;;;;;;7.50;4.07;;;;;;;6.37;100.00;102699.34;7383273;19;20504;-44
2022/04/17 07:24:21;;;;;;;6.50;3.73;;;;;;;6.47;100.00;102702.88;7395106;19;20396;-47
2022/04/17 07:26:53;;;;;;;7.50;3.40;;;;;;;6.57;100.00;102706.28;7364437;19;20409;-45
2022/04/17 07:29:23;;;;;;;5.53;3.47;;;;;;;6.67;100.00;102700.31;7395204;19;20448;-45
2022/04/17 07:31:53;;;;;;;36.33;14.40;;;;;;;6.84;100.00;102695.00;7354975;19;20424;-50
2022/04/17 07:34:23;;;;;;;7.03;3.73;;;;;;;6.97;100.00;102698.66;7396049;19;20386;-45
2022/04/17 07:36:54;;;;;;;8.50;4.50;;;;;;;7.02;100.00;102699.94;7359025;19;20418;-45
2022/04/17 07:39:24;;;;;;;7.20;3.70;;;;;;;7.11;100.00;102705.88;7393802;19;20517;-47
2022/04/17 07:41:56;;;;;;;7.73;3.60;;;;;;;7.33;100.00;102704.28;7358343;19;20949;-44
2022/04/17 07:44:29;;;;;;;7.70;3.73;;;;;;;7.50;100.00;102704.06;7395874;19;20733;-44
2022/04/17 07:46:59;;;;;;;6.80;3.10;;;;;;;7.50;99.86;102706.63;7364811;19;20451;-45
2022/04/17 07:49:28;;;;;;;6.53;3.23;;;;;;;7.38;94.82;102716.75;7393918;19;20406;-43
2022/04/17 07:51:58;;;;;;;6.80;3.60;;;;;;;7.39;95.21;102717.66;7371056;19;21095;-48
2022/04/17 07:54:27;;;;;;;6.93;3.67;;;;;;;7.54;90.73;102713.81;7394356;19;20381;-46
2022/04/17 07:57:00;;;;;;;5.53;2.97;;;;;;;7.50;85.21;102721.13;7389951;19;20425;-43
2022/04/17 07:59:29;;;;;;;6.73;3.23;;;;;;;7.52;82.07;102720.50;7394336;19;20417;-48
2022/04/17 08:02:28;;;;;;;6.97;3.50;;;;;;;7.63;80.29;102717.97;7388428;19;20426;-44
2022/04/17 08:04:58;;;;;;;6.80;3.30;;;;;;;7.66;76.57;102719.13;7395486;19;21236;-47
2022/04/17 08:07:27;;;;;;;6.43;3.70;;;;;;;7.86;77.78;102707.06;7355457;19;20398;-50
2022/04/17 08:09:57;;;;;;;27.40;10.03;;;;;;;7.99;80.93;102715.78;7393969;19;20419;-47
2022/04/17 08:12:29;;;;;;;8.63;4.10;;;;;;;8.00;76.69;102710.75;7385676;19;20438;-46
2022/04/17 08:14:59;;;;;;;7.90;3.93;;;;;;;8.05;78.93;102712.03;7394683;19;20485;-44
2022/04/17 08:17:28;;;;;;;7.23;3.50;;;;;;;8.16;75.60;102702.66;7389297;19;20422;-45
2022/04/17 08:19:58;;;;;;;7.37;4.17;;;;;;;8.29;75.34;102698.50;7393440;19;20445;-45
2022/04/17 08:22:27;;;;;;;8.70;4.70;;;;;;;8.32;76.01;102699.66;7389976;19;20430;-50
2022/04/17 08:24:57;;;;;;;11.77;5.70;;;;;;;8.32;77.01;102703.94;7393393;19;20462;-46
2022/04/17 08:27:29;;;;;;;7.87;4.43;;;;;;;8.44;75.80;102698.88;7387831;19;20425;-44
2022/04/17 08:29:59;;;;;;;8.57;4.23;;;;;;;8.56;70.97;102692.19;7393082;19;20418;-47
2022/04/17 08:32:28;;;;;;;8.00;3.40;;;;;;;8.53;66.53;102686.81;7387210;19;20430;-44
2022/04/17 08:34:58;;;;;;;8.20;3.67;;;;;;;8.63;68.20;102691.03;7393971;19;20396;-46
2022/04/17 08:37:27;;;;;;;7.90;4.17;;;;;;;8.85;69.24;102685.91;7388477;19;20414;-49
2022/04/17 08:39:57;;;;;;;7.70;4.03;;;;;;;8.97;67.10;102688.56;7391988;19;20416;-45
2022/04/17 08:42:29;;;;;;;6.60;3.80;;;;;;;9.04;68.39;102680.53;7388617;19;20447;-46
2022/04/17 08:44:59;;;;;;;6.20;3.30;;;;;;;9.01;64.47;102680.31;7394489;19;20403;-44
2022/04/17 08:47:28;;;;;;;9.00;4.40;;;;;;;9.28;67.81;102688.41;7388311;19;20415;-45
2022/04/17 08:49:58;;;;;;;10.63;4.00;;;;;;;9.32;64.86;102679.22;7391928;19;20435;-47
2022/04/17 08:52:28;;;;;;;11.50;4.20;;;;;;;9.44;64.75;102676.72;7385201;19;20443;-46
2022/04/17 08:54:59;;;;;;;7.93;4.03;;;;;;;9.51;65.57;102672.91;7393120;19;20390;-47
2022/04/17 08:57:31;;;;;;;41.23;18.23;;;;;;;9.54;67.24;102673.16;7388534;19;20411;-48
2022/04/17 09:00:01;;;;;;;11.70;4.70;;;;;;;9.53;65.59;102673.97;7391752;19;20430;-52
2022/04/17 09:02:30;;;;;;;7.93;3.80;;;;;;;9.72;63.93;102666.84;7388034;19;21049;-48
2022/04/17 09:05:00;;;;;;;7.50;3.50;;;;;;;9.76;61.57;102661.91;7393942;19;20471;-44
2022/04/17 09:07:40;;;;;;;7.60;4.07;;;;;;;9.82;60.55;102658.13;7388340;19;20422;-45
2022/04/17 09:10:11;;;;;;;6.97;4.03;;;;;;;9.92;59.77;102662.28;7389541;19;20426;-46
2022/04/17 09:12:47;;;;;;;6.03;3.20;;;;;;;10.05;59.29;102656.34;7378061;19;20451;-45
2022/04/17 09:15:16;;;;;;;6.30;3.30;;;;;;;10.16;59.26;102649.44;7392104;19;20406;-48
2022/04/17 09:17:46;;;;;;;6.83;3.33;;;;;;;10.08;60.08;102651.44;7390355;19;20414;-49
2022/04/17 09:20:21;;;;;;;8.40;3.23;;;;;;;10.06;57.07;102647.81;7388646;19;20426;-48
2022/04/17 09:22:52;;;;;;;7.43;3.40;;;;;;;10.10;55.93;102642.13;7390873;19;20502;-47
2022/04/17 09:25:25;;;;;;;6.20;3.40;;;;;;;10.33;57.40;102637.75;7384478;19;20407;-47
2022/04/17 09:28:03;;;;;;;7.83;4.30;;;;;;;10.45;54.97;102639.47;7387803;19;20396;-47
2022/04/17 09:30:33;;;;;;;11.50;4.70;;;;;;;10.51;55.32;102627.88;7361196;19;20522;-48
2022/04/17 09:33:06;;;;;;;10.63;5.67;;;;;;;10.56;55.40;102628.22;7388290;19;20479;-46
2022/04/17 09:35:39;;;;;;;6.80;3.13;;;;;;;10.63;52.32;102616.66;7353208;19;20384;-47
2022/04/17 09:38:10;;;;;;;5.30;3.20;;;;;;;10.65;52.79;102622.81;7389043;19;20392;-45
2022/04/17 09:40:40;;;;;;;15.97;7.90;;;;;;;10.75;53.75;102621.78;7384557;19;21258;-49
2022/04/17 09:43:16;;;;;;;5.40;2.90;;;;;;;10.83;53.44;102618.06;7393573;19;20475;-45
2022/04/17 09:46:00;;;;;;;6.40;3.30;;;;;;;10.94;53.93;102622.28;7382265;19;20415;-45
2022/04/17 09:48:33;;;;;;;7.07;3.60;;;;;;;10.83;53.70;102607.75;7388747;19;20411;-49
2022/04/17 09:51:03;;;;;;;12.73;6.40;;;;;;;10.63;53.50;102604.66;7382989;19;20495;-47
2022/04/17 09:53:34;;;;;;;7.00;3.13;;;;;;;10.71;54.59;102597.44;7388877;19;20384;-45
2022/04/17 09:56:11;;;;;;;8.37;3.70;;;;;;;11.13;55.46;102597.72;7382167;19;20508;-44
2022/04/17 09:58:48;;;;;;;6.30;3.20;;;;;;;11.32;51.76;102594.75;7388664;19;20406;-45
2022/04/17 10:01:19;;;;;;;6.40;3.30;;;;;;;11.28;51.58;102599.59;7353482;19;20414;-44
2022/04/17 10:03:49;;;;;;;9.23;4.30;;;;;;;11.00;51.56;102590.84;7389617;19;20462;-48
2022/04/17 10:06:18;;;;;;;8.23;3.50;;;;;;;11.29;55.08;102588.47;7359505;19;20391;-51
2022/04/17 10:08:49;;;;;;;7.37;4.43;;;;;;;11.44;53.37;102573.09;7244625;19;2808640;-46
2022/04/17 10:11:18;;;;;;;7.43;3.63;;;;;;;11.53;52.41;102575.41;7387047;19;20250;-46
2022/04/17 10:13:51;;;;;;;7.80;3.87;;;;;;;11.72;51.89;102580.09;7390229;19;20385;-45
2022/04/17 10:16:23;;;;;;;9.37;4.33;;;;;;;11.66;52.45;102579.69;7384776;19;20424;-48
2022/04/17 10:18:53;;;;;;;9.17;3.60;;;;;;;11.42;51.08;102567.81;7389812;19;20747;-48
2022/04/17 10:21:25;;;;;;;5.87;3.30;;;;;;;11.81;53.19;102556.53;7359388;19;20861;-50
2022/04/17 10:23:59;;;;;;;6.57;3.17;;;;;;;11.78;50.36;102558.94;7390295;19;20731;-47
2022/04/17 10:26:29;;;;;;;7.20;3.60;;;;;;;11.50;51.10;102547.66;7352067;19;20993;-47
2022/04/17 10:29:03;;;;;;;7.03;3.10;;;;;;;11.84;53.23;102554.19;7389247;19;20747;-46
2022/04/17 10:31:41;;;;;;;7.00;2.77;;;;;;;11.92;50.73;102547.81;7358714;19;20439;-49
2022/04/17 10:34:40;;;;;;;5.30;2.77;;;;;;;12.02;50.27;102550.16;7393371;19;20401;-44
2022/04/17 10:37:27;;;;;;;5.80;2.60;;;;;;;11.97;47.85;102536.06;7354400;19;20997;-44
2022/04/17 10:39:57;;;;;;;9.37;2.87;;;;;;;12.13;51.76;102537.97;7387939;19;20425;-45
2022/04/17 10:42:36;;;;;;;6.43;3.00;;;;;;;12.22;49.51;102532.50;7355273;19;20440;-43
2022/04/17 10:45:11;;;;;;;6.50;3.10;;;;;;;11.90;48.38;102528.72;7390584;19;20377;-46
2022/04/17 10:47:41;;;;;;;14.47;6.57;;;;;;;11.87;49.08;102518.16;7385006;19;20728;-45
2022/04/17 10:50:13;;;;;;;9.30;4.23;;;;;;;12.10;46.80;102518.78;7394939;19;20773;-46
2022/04/17 10:52:43;;;;;;;7.30;2.23;;;;;;;11.96;45.36;102523.94;7364086;19;20393;-45
2022/04/17 10:55:14;;;;;;;4.10;2.20;;;;;;;11.72;43.96;102508.63;7398375;19;20406;-45
2022/04/17 10:57:45;;;;;;;4.80;2.37;;;;;;;11.92;42.47;102502.91;7361628;19;20387;-49
2022/04/17 11:00:36;;;;;;;4.13;1.57;;;;;;;12.08;43.55;102503.16;7394753;19;20419;-44
2022/04/17 11:03:26;;;;;;;4.30;2.00;;;;;;;12.20;43.77;102504.72;7397648;19;20440;-44
2022/04/17 11:06:12;;;;;;;7.13;2.30;;;;;;;11.86;43.46;102496.56;7361746;19;20404;-46
2022/04/17 11:08:49;;;;;;;3.80;1.57;;;;;;;12.02;44.92;102495.84;7394749;19;20406;-46
2022/04/17 11:11:18;;;;;;;3.73;1.63;;;;;;;12.50;45.04;102490.19;7363985;19;20470;-46
2022/04/17 11:14:12;;;;;;;18.40;9.90;;;;;;;12.83;44.63;102482.69;7395182;19;20395;-45
2022/04/17 11:16:48;;;;;;;9.53;5.40;;;;;;;12.87;43.07;102482.88;7353330;19;20422;-48
2022/04/17 11:19:19;;;;;;;5.17;1.97;;;;;;;12.94;42.30;102479.84;7394664;19;20417;-45
2022/04/17 11:21:50;;;;;;;4.27;1.40;;;;;;;12.50;40.96;102481.53;7360998;19;20428;-48
2022/04/17 11:24:20;;;;;;;3.60;1.50;;;;;;;12.94;39.84;102480.75;7395868;19;20981;-45
2022/04/17 11:27:13;;;;;;;5.60;1.90;;;;;;;12.59;39.96;102487.28;7370601;19;20391;-49
2022/04/17 11:29:45;;;;;;;4.53;1.93;;;;;;;12.53;41.11;102477.47;7394824;19;20427;-43
2022/04/17 11:32:46;;;;;;;3.43;1.43;;;;;;;12.45;42.66;102486.44;7387854;19;20752;-45
2022/04/17 11:35:27;;;;;;;3.47;1.30;;;;;;;12.78;43.69;102484.09;7395896;19;20391;-47
2022/04/17 11:38:00;;;;;;;5.47;2.60;;;;;;;12.67;44.02;102490.34;7382277;19;20486;-46
2022/04/17 11:40:31;;;;;;;4.63;1.50;;;;;;;12.78;41.90;102491.00;7380011;19;20416;-47
2022/04/17 11:43:09;;;;;;;4.17;2.00;;;;;;;12.75;43.03;102476.16;7398177;19;20989;-44
2022/04/17 11:45:40;;;;;;;4.20;1.90;;;;;;;13.20;42.78;102483.09;7388170;19;20922;-45